Time;durP1;ratioP1;P1;durP2;ratioP2;P2;SDS_P1;SDS_P2;PMS_P1;PMS_P2;Temp;Humidity;BMP_temperature;BMP_pressure;BME280_temperature;BME280_humidity;BME280_pressure;Samples;Min_cycle;Max_cycle;Signal;HPM_P1;HPM_P2
2021/12/31 00:03:20;;;;;;;4.65;0.90;;;;;;;;;;10373462;28;20545;-76
2021/12/31 00:08:20;;;;;;;3.78;0.73;;;;;;;;;;10356539;28;20451;-76
2021/12/31 00:13:21;;;;;;;4.85;0.75;;;;;;;;;;10361025;28;20052;-75
2021/12/31 00:18:21;;;;;;;2.58;0.65;;;;;;;;;;10374858;28;20095;-75
2021/12/31 00:23:25;;;;;;;2.28;0.80;;;;;;;;;;10398301;28;20476;-75
2021/12/31 00:28:25;;;;;;;7.35;0.70;;;;;;;;;;10388090;28;20527;-76
2021/12/31 00:33:26;;;;;;;1.75;0.70;;;;;;;;;;10356955;28;20432;-75
2021/12/31 07:36:41;;;;;;;0.30;0.30;;;;;;;;;;10488396;28;20605;-74
2021/12/31 07:41:41;;;;;;;0.40;0.40;;;;;;;;;;10468201;28;20095;-73
2021/12/31 07:46:43;;;;;;;0.50;0.50;;;;;;;;;;10498866;28;20025;-73
2021/12/31 07:51:44;;;;;;;0.40;0.40;;;;;;;;;;10485193;28;20064;-69
2021/12/31 07:56:45;;;;;;;7.90;3.15;;;;;;;;;;10477980;28;20132;-70
2021/12/31 08:01:46;;;;;;;24.10;11.18;;;;;;;;;;10467130;28;20479;-71
2021/12/31 08:06:48;;;;;;;63.88;32.90;;;;;;;;;;10472723;28;20032;-78
2021/12/31 08:11:48;;;;;;;53.00;24.73;;;;;;;;;;10457529;28;20131;-77
2021/12/31 08:16:49;;;;;;;50.22;21.17;;;;;;;;;;10473159;28;20036;-71
2021/12/31 08:21:49;;;;;;;31.75;8.80;;;;;;;;;;10380445;28;20026;-69
2021/12/31 08:26:50;;;;;;;17.27;8.02;;;;;;;;;;10402852;28;20048;-69
2021/12/31 09:01:43;;;;;;;15.27;6.80;;;;;;;;;;10643400;27;20675;-70
2021/12/31 09:06:43;;;;;;;22.83;5.72;;;;;;;;;;10565949;28;20027;-70
2021/12/31 09:11:44;;;;;;;21.10;5.78;;;;;;;;;;10562984;27;20053;-70
2021/12/31 09:16:46;;;;;;;22.05;5.43;;;;;;;;;;10571043;28;20092;-70
2021/12/31 09:21:47;;;;;;;17.92;5.10;;;;;;;;;;10576140;28;20043;-70
2021/12/31 09:26:47;;;;;;;27.75;5.45;;;;;;;;;;10584380;27;20036;-70
2021/12/31 09:31:48;;;;;;;19.52;4.35;;;;;;;;;;10561398;28;20027;-69
2021/12/31 09:36:49;;;;;;;25.63;3.60;;;;;;;;;;10564799;27;20035;-69
2021/12/31 09:41:49;;;;;;;17.98;4.22;;;;;;;;;;10565453;28;20031;-69
2021/12/31 09:46:50;;;;;;;19.38;4.65;;;;;;;;;;10589032;28;20025;-70
2021/12/31 09:51:51;;;;;;;23.05;3.67;;;;;;;;;;10574252;28;20041;-67
2021/12/31 09:56:51;;;;;;;20.10;2.80;;;;;;;;;;10518678;27;20035;-67
2021/12/31 10:01:53;;;;;;;10.02;2.20;;;;;;;;;;10563057;28;20428;-67
2021/12/31 10:07:11;;;;;;;12.93;1.70;;;;;;;;;;10582156;28;20450;-66
2021/12/31 10:12:11;;;;;;;9.63;1.97;;;;;;;;;;10546250;27;20363;-68
2021/12/31 10:17:12;;;;;;;11.32;2.47;;;;;;;;;;10529671;28;20024;-68
2021/12/31 10:22:19;;;;;;;11.25;6.47;;;;;;;;;;10547106;27;20077;-67
2021/12/31 10:27:20;;;;;;;20.55;5.82;;;;;;;;;;10542503;28;20027;-68
2021/12/31 10:32:33;;;;;;;19.08;7.13;;;;;;;;;;10540327;28;20164;-67
2021/12/31 10:43:33;;;;;;;17.23;4.72;;;;;;;;;;10674421;22;20795;-67
2021/12/31 10:48:50;;;;;;;19.88;5.10;;;;;;;;;;10369935;22;20944;-66
2021/12/31 10:53:53;;;;;;;13.32;4.30;;;;;;;;;;10257860;28;20041;-66
2021/12/31 11:10:37;;;;;;;12.75;3.88;;;;;;;;;;10379741;23;20091;-65
2021/12/31 11:15:38;;;;;;;12.25;3.40;;;;;;;;;;10308489;28;20057;-67
2021/12/31 11:20:41;;;;;;;10.82;3.90;;;;;;;;;;10302494;28;20035;-67
2021/12/31 11:26:01;;;;;;;11.23;4.10;;;;;;;;;;10337180;28;20037;-67
2021/12/31 11:36:51;;;;;;;11.00;3.55;;;;;;;;;;10305240;23;20052;-67
2021/12/31 11:41:54;;;;;;;17.95;3.00;;;;;;;;;;10160510;29;20068;-68
2021/12/31 11:47:14;;;;;;;16.85;3.53;;;;;;;;;;10144843;29;20028;-67
2021/12/31 11:52:24;;;;;;;10.00;3.70;;;;;;;;;;10156296;29;20035;-66
2021/12/31 11:57:29;;;;;;;16.42;3.78;;;;;;;;;;10131860;29;20028;-66
2021/12/31 12:02:35;;;;;;;38.08;5.75;;;;;;;;;;10137807;29;20507;-65
2021/12/31 13:12:55;;;;;;;22.77;5.43;;;;;;;;;;9987331;29;20447;-67
2021/12/31 13:18:01;;;;;;;13.88;5.03;;;;;;;;;;10321104;28;20193;-66
2021/12/31 13:23:06;;;;;;;18.40;5.35;;;;;;;;;;10541324;27;20058;-67
2021/12/31 13:28:14;;;;;;;13.60;7.82;;;;;;;;;;10770909;22;20076;-67
2021/12/31 13:33:24;;;;;;;14.38;6.10;;;;;;;;;;10509116;28;20375;-68
2021/12/31 13:38:24;;;;;;;17.55;5.45;;;;;;;;;;10477040;28;20417;-69
2021/12/31 13:43:25;;;;;;;19.90;5.45;;;;;;;;;;10488082;28;20024;-69
2021/12/31 13:48:30;;;;;;;15.30;4.97;;;;;;;;;;10509846;28;20021;-69
2021/12/31 13:53:31;;;;;;;28.80;4.82;;;;;;;;;;10492433;28;20460;-68
2021/12/31 13:58:39;;;;;;;32.83;5.00;;;;;;;;;;10502421;28;20067;-67
2021/12/31 14:03:40;;;;;;;35.60;11.13;;;;;;;;;;10504063;28;20540;-68
2021/12/31 14:08:43;;;;;;;77.57;9.10;;;;;;;;;;10458063;28;20037;-70
2021/12/31 14:13:45;;;;;;;56.38;8.23;;;;;;;;;;10480765;28;20056;-70
2021/12/31 14:18:45;;;;;;;54.38;7.38;;;;;;;;;;10477841;28;20132;-67
2021/12/31 14:23:48;;;;;;;44.47;6.93;;;;;;;;;;10481400;28;20120;-68
2021/12/31 14:28:48;;;;;;;62.28;7.97;;;;;;;;;;10476078;28;21751;-67
2021/12/31 14:33:51;;;;;;;35.70;6.72;;;;;;;;;;10460470;28;20044;-68
2021/12/31 14:38:52;;;;;;;42.80;6.80;;;;;;;;;;10476168;28;20047;-69
2021/12/31 14:43:58;;;;;;;34.10;6.07;;;;;;;;;;10478498;28;20047;-70
2021/12/31 14:48:58;;;;;;;18.70;5.13;;;;;;;;;;10461903;28;20041;-68
2021/12/31 14:54:10;;;;;;;32.70;5.43;;;;;;;;;;10454048;28;20028;-69
2021/12/31 14:59:13;;;;;;;23.58;4.75;;;;;;;;;;10434155;28;20112;-69
2021/12/31 15:04:14;;;;;;;11.82;3.63;;;;;;;;;;10464615;28;20043;-69
2021/12/31 15:09:33;;;;;;;11.80;4.35;;;;;;;;;;10464909;28;20039;-69
2021/12/31 16:43:41;;;;;;;25.95;5.53;;;;;;;;;;9792819;30;20064;-68
2021/12/31 16:49:08;;;;;;;27.73;5.93;;;;;;;;;;10561362;27;20546;-68
2021/12/31 16:54:08;;;;;;;36.33;5.43;;;;;;;;;;10515174;28;20032;-67
2021/12/31 16:59:09;;;;;;;31.98;6.00;;;;;;;;;;10494387;28;20041;-68
2021/12/31 17:04:10;;;;;;;43.03;6.43;;;;;;;;;;10501514;28;20024;-70
2021/12/31 17:09:10;;;;;;;40.53;5.40;;;;;;;;;;10522248;28;20033;-68
2021/12/31 17:14:11;;;;;;;42.30;6.15;;;;;;;;;;10511836;28;20043;-67
2021/12/31 17:25:09;;;;;;;31.67;5.32;;;;;;;;;;10535092;23;20049;-67
2021/12/31 17:30:10;;;;;;;18.90;4.30;;;;;;;;;;10375646;28;20033;-67
2021/12/31 17:35:11;;;;;;;33.63;4.80;;;;;;;;;;10377959;28;20021;-68
2021/12/31 17:40:13;;;;;;;37.08;4.10;;;;;;;;;;10366394;28;20030;-68
